Flight Track Log - Related Links

Times and Time Zones

All times are in EST time to prevent confusion due to time zone crossing. See the QLK378D flight status page for this flight to view local times or setup timezone preferences in your user account.

Time Position Orientation Groundspeed Altitude Reporting Facility
EST Latitude Longitude Course Direction KTS MPH feet Rate Location/Type
Sat 12:33:47 AM -27.3751 153.1340 24° Northeast 135 155 700  Level Aus ATC (RADAR)
Sat 12:34:12 AM -27.3585 153.1423 24° Northeast 157 181 1,600 2,000 Climbing Aus ATC (RADAR)
Sat 12:34:47 AM -27.3267 153.1387 354° North 189 217 2,700 2,471 Climbing Aus ATC (RADAR)
Sat 12:35:37 AM -27.2803 153.1337 354° North 198 228 5,100 2,533 Climbing Aus ATC (RADAR)
Sat 12:36:17 AM -27.2396 153.1310 357° North 217 250 6,500 2,047 Climbing Aus ATC (RADAR)
Sat 12:37:02 AM -27.1930 153.1287 358° North 224 258 8,000 1,899 Climbing Aus ATC (RADAR)
Sat 12:37:36 AM -27.1551 153.1261 357° North 233 268 9,000 1,851 Climbing Aus ATC (RADAR)
Sat 12:38:36 AM -27.0878 153.1216 357° North 240 276 10,900 1,835 Climbing Aus ATC (RADAR)
Sat 12:39:01 AM -27.0594 153.1194 356° North 244 281 11,600 1,700 Climbing Aus ATC (RADAR)
Sat 12:39:36 AM -27.0195 153.1166 357° North 245 282 12,600 1,575 Climbing Aus ATC (RADAR)
Sat 12:40:21 AM -26.9669 153.1135 357° North 253 291 13,700 1,125 Climbing Aus ATC (RADAR)
Sat 12:40:56 AM -26.9240 153.1117 358° North 264 304 14,100 300 Climbing Aus ATC (RADAR)
Sat 12:41:41 AM -26.8626 153.1075 357° North 298 343 14,100  Level Aus ATC (RADAR)
Sat 12:42:06 AM -26.8260 153.1045 356° North 313 360 14,100  Level Aus ATC (RADAR)
Sat 12:42:41 AM -26.7727 153.1008 356° North 328 377 14,100  Level Aus ATC (RADAR)
Sat 12:43:36 AM -26.6870 153.0956 357° North 336 387 14,100  Level Aus ATC (RADAR)
Sat 12:44:01 AM -26.6482 153.0928 356° North 336 387 14,100  Level Aus ATC (RADAR)
Sat 12:44:41 AM -26.5870 153.0891 357° North 330 380 14,100  Level Aus ATC (RADAR)
Sat 12:45:26 AM -26.5202 153.0776 351° North 323 372 14,100  Level Aus ATC (RADAR)
Sat 12:46:01 AM -26.4702 153.0628 345° North 318 366 14,100  Level Aus ATC (RADAR)
Sat 12:46:41 AM -26.4146 153.0395 339° North 317 365 14,100  Level Aus ATC (RADAR)
Sat 12:47:06 AM -26.3796 153.0266 342° North 316 364 14,100  Level Aus ATC (RADAR)
Sat 12:47:41 AM -26.3305 153.0088 342° North 317 365 14,100  Level Aus ATC (RADAR)
Sat 12:48:40 AM -26.2463 152.9790 342° North 316 364 14,100  Level Aus ATC (RADAR)
Sat 12:49:05 AM -26.2111 152.9665 342° North 317 365 14,100  Level Aus ATC (RADAR)
Sat 12:49:40 AM -26.1620 152.9487 342° North 317 365 14,100  Level Aus ATC (RADAR)
Sat 12:50:25 AM -26.0988 152.9261 342° North 317 365 14,100  Level Aus ATC (RADAR)
Sat 12:51:00 AM -26.0497 152.9088 342° North 317 365 14,100  Level Aus ATC (RADAR)
Sat 12:51:45 AM -25.9867 152.8863 342° North 317 365 14,100  Level Aus ATC (RADAR)
Sat 12:52:10 AM -25.9513 152.8736 342° North 316 364 14,100  Level Aus ATC (RADAR)
Sat 12:52:45 AM -25.9024 152.8569 343° North 313 360 14,100  Level Aus ATC (RADAR)
Sat 12:53:45 AM -25.8182 152.8270 342° North 316 364 14,100  Level Aus ATC (RADAR)
Sat 12:54:10 AM -25.7834 152.8148 342° North 314 361 14,100 -369 Level Aus ATC (RADAR)
Sat 12:54:50 AM -25.7274 152.7948 342° North 316 364 13,700 -1,200 Descending Aus ATC (RADAR)
Sat 12:55:35 AM -25.6624 152.7722 343° North 327 376 12,400 -1,725 Descending Aus ATC (RADAR)
Sat 12:56:10 AM -25.6129 152.7549 342° North 319 367 11,400 -1,624 Descending Aus ATC (RADAR)
Sat 12:57:00 AM -25.5483 152.7309 341° North 291 335 10,100 -1,600 Descending Aus ATC (RADAR)
Sat 12:57:25 AM -25.5167 152.7201 343° North 287 330 9,400 -1,527 Descending Aus ATC (RADAR)
Sat 12:57:55 AM -25.4807 152.7075 342° North 274 315 8,700 -1,341 Descending Aus ATC (RADAR)
Sat 12:58:50 AM -25.4193 152.6863 343° North 249 287 7,500 -1,275 Descending Aus ATC (RADAR)
Sat 12:59:15 AM -25.3926 152.6770 343° North 243 280 7,000 -1,322 Descending Aus ATC (RADAR)
Sat 12:59:49 AM -25.3571 152.6638 341° North 233 268 6,200 -1,333 Descending Aus ATC (RADAR)
Sat 01:00:09 AM -25.3370 152.6565 342° North 230 265 5,800 -1,200 Descending Aus ATC (RADAR)
Sat 01:03:14 AM -25.3234 152.8244 85° East -1,881 Descending Aus ATC (Calculated)
Sat 01:05:00 AM -25.3189 152.8803 169° South  Level Estimated
Sat 01:06:00 AM -25.3189 152.8803 172° South  Level Estimated
Sat 01:07:00 AM -25.3189 152.8803 172° South  Level Estimated
Sat 01:08:00 AM -25.3189 152.8803 172° South  Level Estimated

Login

Don't have an account? Register now (free) for customized features, flight alerts, and more!